createdAt,value
2022-07-30T00:00:13.074Z,1.70
2022-07-30T00:03:10.298Z,1.75
2022-07-30T00:05:56.126Z,2.03
2022-07-30T00:08:41.506Z,1.67
2022-07-30T00:11:27.985Z,2.20
2022-07-30T00:14:13.621Z,2.03
2022-07-30T00:16:59.463Z,1.73
2022-07-30T00:19:45.050Z,1.80
2022-07-30T00:22:31.113Z,1.60
2022-07-30T00:25:19.055Z,1.70
2022-07-30T00:28:04.816Z,1.60
2022-07-30T00:30:54.929Z,1.50
2022-07-30T00:33:41.883Z,1.50
2022-07-30T00:36:27.506Z,1.48
2022-07-30T00:39:13.362Z,2.00
2022-07-30T00:42:01.130Z,1.58
2022-07-30T00:44:46.684Z,2.10
2022-07-30T00:47:32.118Z,1.73
2022-07-30T00:50:17.926Z,1.80
2022-07-30T00:53:05.083Z,1.50
2022-07-30T00:55:50.712Z,1.50
2022-07-30T00:58:36.176Z,1.80
2022-07-30T01:01:21.711Z,1.30
2022-07-30T01:04:11.950Z,1.52
2022-07-30T01:06:57.796Z,1.77
2022-07-30T01:09:43.323Z,1.52
2022-07-30T01:12:34.070Z,1.95
2022-07-30T01:15:20.189Z,1.85
2022-07-30T01:18:08.872Z,1.88
2022-07-30T01:21:07.697Z,1.80
2022-07-30T01:23:58.481Z,1.75
2022-07-30T01:26:44.535Z,1.20
2022-07-30T01:29:32.319Z,2.05
2022-07-30T01:32:22.031Z,1.60
2022-07-30T01:35:10.067Z,1.20
2022-07-30T01:37:56.907Z,1.27
2022-07-30T01:40:45.088Z,1.80
2022-07-30T01:43:32.936Z,1.60
2022-07-30T01:46:19.707Z,1.77
2022-07-30T01:49:09.417Z,1.92
2022-07-30T01:51:55.323Z,1.70
2022-07-30T01:54:43.791Z,1.90
2022-07-30T01:57:32.128Z,1.90
2022-07-30T02:00:18.640Z,1.85
2022-07-30T02:03:08.541Z,1.67
2022-07-30T02:05:58.559Z,2.10
2022-07-30T02:08:51.290Z,2.13
2022-07-30T02:11:59.747Z,2.33
2022-07-30T02:14:55.251Z,2.83
2022-07-30T02:17:59.224Z,2.47
2022-07-30T02:20:49.471Z,2.40
2022-07-30T02:23:38.675Z,2.08
2022-07-30T02:26:26.513Z,1.80
2022-07-30T02:29:16.722Z,2.47
2022-07-30T02:32:06.303Z,2.25
2022-07-30T02:34:56.217Z,2.20
2022-07-30T02:37:44.457Z,2.05
2022-07-30T02:40:30.676Z,2.60
2022-07-30T02:43:18.386Z,2.50
2022-07-30T02:46:06.159Z,2.55
2022-07-30T02:49:13.871Z,3.00
2022-07-30T02:52:03.316Z,2.35
2022-07-30T02:54:51.827Z,2.30
2022-07-30T02:57:43.221Z,3.00
2022-07-30T03:00:32.233Z,2.90
2022-07-30T03:03:18.855Z,3.10
2022-07-30T03:06:06.414Z,2.42
2022-07-30T03:08:53.849Z,3.10
2022-07-30T03:11:41.346Z,2.83
2022-07-30T03:14:27.418Z,2.47
2022-07-30T03:17:16.047Z,2.53
2022-07-30T03:20:04.635Z,3.15
2022-07-30T03:22:53.250Z,2.92
2022-07-30T03:25:42.502Z,2.53
2022-07-30T03:28:31.876Z,2.58
2022-07-30T03:31:18.703Z,2.22
2022-07-30T03:34:06.598Z,2.60
2022-07-30T03:36:55.108Z,1.88
2022-07-30T03:39:40.896Z,2.25
2022-07-30T03:42:27.306Z,2.10
2022-07-30T03:45:14.449Z,2.30
2022-07-30T03:48:00.699Z,2.75
2022-07-30T03:50:47.016Z,3.10
2022-07-30T03:53:33.804Z,2.97
2022-07-30T03:56:38.931Z,2.83
2022-07-30T03:59:51.893Z,3.13
2022-07-30T04:02:44.753Z,3.10
2022-07-30T04:05:41.129Z,3.17
2022-07-30T04:08:31.894Z,3.95
2022-07-30T04:11:17.757Z,3.72
2022-07-30T04:14:27.838Z,3.42
2022-07-30T04:17:29.981Z,3.20
2022-07-30T04:20:24.221Z,3.33
2022-07-30T04:23:11.426Z,3.25
2022-07-30T04:26:00.275Z,3.28
2022-07-30T04:28:46.964Z,3.25
2022-07-30T04:31:38.255Z,3.33
2022-07-30T04:34:51.358Z,3.00
2022-07-30T04:37:51.839Z,3.08
2022-07-30T04:40:38.090Z,3.35
2022-07-30T04:43:23.942Z,3.15
2022-07-30T04:46:10.400Z,3.67
2022-07-30T04:48:56.840Z,3.75
2022-07-30T04:51:45.600Z,3.67
2022-07-30T04:54:55.890Z,2.80
2022-07-30T04:57:42.804Z,3.67
2022-07-30T05:00:32.400Z,3.63
2022-07-30T05:03:20.723Z,3.38
2022-07-30T05:06:12.372Z,3.92
2022-07-30T05:08:59.971Z,3.20
2022-07-30T05:11:54.225Z,2.72
2022-07-30T05:14:39.675Z,3.20
2022-07-30T05:17:27.269Z,2.85
2022-07-30T05:20:13.030Z,3.20
2022-07-30T05:23:19.031Z,2.92
2022-07-30T05:26:19.959Z,3.15
2022-07-30T05:29:08.184Z,3.38
2022-07-30T05:32:04.964Z,3.00
2022-07-30T05:34:55.203Z,3.30
2022-07-30T05:37:41.114Z,2.92
2022-07-30T05:40:27.221Z,3.20
2022-07-30T05:43:24.045Z,3.45
2022-07-30T05:46:10.764Z,3.30
2022-07-30T05:48:57.702Z,3.00
2022-07-30T05:51:44.410Z,2.95
2022-07-30T05:54:31.462Z,3.03
2022-07-30T05:57:37.381Z,2.85
2022-07-30T06:00:24.664Z,3.00
2022-07-30T06:03:13.244Z,3.10
2022-07-30T06:06:22.920Z,3.50
2022-07-30T06:09:10.098Z,2.90
2022-07-30T06:11:57.553Z,3.17
2022-07-30T06:14:44.114Z,3.00
2022-07-30T06:17:41.556Z,3.20
2022-07-30T06:20:33.731Z,3.28
2022-07-30T06:23:30.908Z,3.42
2022-07-30T06:26:40.876Z,3.63
2022-07-30T06:29:27.547Z,3.65
2022-07-30T06:32:13.915Z,2.75
2022-07-30T06:35:04.761Z,3.25
2022-07-30T06:38:00.524Z,3.03
2022-07-30T06:41:02.772Z,3.47
2022-07-30T06:44:07.124Z,2.72
2022-07-30T06:47:26.316Z,3.08
2022-07-30T06:50:13.046Z,2.85
2022-07-30T06:52:59.684Z,3.30
2022-07-30T06:56:00.498Z,2.85
2022-07-30T06:58:53.792Z,2.65
2022-07-30T07:01:59.408Z,2.58
2022-07-30T07:04:45.959Z,4.30
2022-07-30T07:07:41.792Z,3.15
2022-07-30T07:10:30.656Z,3.20
2022-07-30T07:13:29.431Z,3.25
2022-07-30T07:16:16.819Z,3.20
2022-07-30T07:19:07.032Z,2.53
2022-07-30T07:21:53.138Z,3.13
2022-07-30T07:24:39.737Z,3.15
2022-07-30T07:27:28.911Z,3.35
2022-07-30T07:30:18.683Z,3.17
2022-07-30T07:33:05.857Z,3.20
2022-07-30T07:35:54.915Z,3.05
2022-07-30T07:38:46.764Z,3.35
2022-07-30T07:41:48.706Z,3.08
2022-07-30T07:44:40.671Z,2.85
2022-07-30T07:47:27.259Z,2.85
2022-07-30T07:50:27.736Z,2.72
2022-07-30T07:53:13.591Z,3.53
2022-07-30T07:55:59.796Z,2.88
2022-07-30T07:58:47.737Z,3.60
2022-07-30T08:01:35.810Z,2.78
2022-07-30T08:04:43.865Z,2.65
2022-07-30T08:07:30.815Z,2.83
2022-07-30T08:10:39.789Z,2.80
2022-07-30T08:13:52.683Z,2.67
2022-07-30T08:16:57.710Z,2.55
2022-07-30T08:20:05.284Z,2.53
2022-07-30T08:22:51.985Z,2.53
2022-07-30T08:25:37.883Z,2.53
2022-07-30T08:28:36.243Z,2.92
2022-07-30T08:31:24.704Z,2.58
2022-07-30T08:34:14.619Z,2.10
2022-07-30T08:37:01.341Z,2.47
2022-07-30T08:39:47.253Z,2.60
2022-07-30T08:42:35.218Z,2.38
2022-07-30T08:45:34.573Z,2.47
2022-07-30T08:48:53.896Z,2.67
2022-07-30T08:51:43.019Z,2.33
2022-07-30T08:54:53.723Z,2.50
2022-07-30T08:57:41.134Z,2.25
2022-07-30T09:00:31.513Z,2.60
2022-07-30T09:03:17.392Z,2.45
2022-07-30T09:06:04.773Z,2.50
2022-07-30T09:08:51.016Z,2.78
2022-07-30T09:11:37.365Z,2.67
2022-07-30T09:14:24.171Z,2.75
2022-07-30T09:17:18.650Z,2.80
2022-07-30T09:20:10.741Z,2.75
2022-07-30T09:23:02.355Z,3.20
2022-07-30T09:26:08.591Z,3.10
2022-07-30T09:29:21.449Z,2.78
2022-07-30T09:32:52.302Z,2.92
2022-07-30T09:35:56.282Z,2.78
2022-07-30T09:39:00.858Z,3.23
2022-07-30T09:42:21.105Z,3.83
2022-07-30T09:45:15.827Z,3.60
2022-07-30T09:48:21.964Z,4.00
2022-07-30T09:51:15.615Z,3.40
2022-07-30T09:54:04.788Z,3.72
2022-07-30T09:57:25.602Z,3.60
2022-07-30T10:00:23.621Z,3.28
2022-07-30T10:03:33.789Z,3.22
2022-07-30T10:07:16.720Z,3.50
2022-07-30T10:10:13.323Z,3.00
2022-07-30T10:13:07.623Z,3.15
2022-07-30T10:15:53.858Z,3.75
2022-07-30T10:18:42.642Z,3.53
2022-07-30T10:21:51.158Z,3.25
2022-07-30T10:25:16.279Z,3.05
2022-07-30T10:28:37.070Z,3.30
2022-07-30T10:31:47.953Z,3.92
2022-07-30T10:34:34.511Z,3.17
2022-07-30T10:37:23.531Z,3.05
2022-07-30T10:40:18.322Z,3.20
2022-07-30T10:43:52.932Z,3.10
2022-07-30T10:47:07.847Z,3.20
2022-07-30T10:50:06.640Z,3.08
2022-07-30T10:52:58.971Z,3.60
2022-07-30T10:55:46.473Z,3.67
2022-07-30T10:58:58.146Z,3.38
2022-07-30T11:01:51.778Z,3.13
2022-07-30T11:04:39.889Z,2.70
2022-07-30T11:07:31.514Z,3.00
2022-07-30T11:13:49.177Z,3.00
2022-07-30T11:16:35.567Z,2.60
2022-07-30T11:19:53.422Z,3.17
2022-07-30T11:22:39.094Z,2.90
2022-07-30T11:25:50.573Z,3.00
2022-07-30T11:28:36.987Z,3.58
2022-07-30T11:31:30.700Z,2.95
2022-07-30T11:34:32.880Z,3.20
2022-07-30T11:37:22.204Z,3.30
2022-07-30T11:40:26.181Z,3.85
2022-07-30T11:43:36.107Z,3.22
2022-07-30T11:46:28.504Z,3.50
2022-07-30T11:49:15.987Z,4.10
2022-07-30T11:52:02.622Z,3.47
2022-07-30T11:54:55.803Z,3.42
2022-07-30T11:57:42.774Z,3.25
2022-07-30T12:00:36.293Z,4.00
2022-07-30T12:03:26.479Z,3.35
2022-07-30T12:06:22.381Z,3.80
2022-07-30T12:09:08.799Z,3.35
2022-07-30T12:11:57.893Z,3.40
2022-07-30T12:14:43.666Z,3.53
2022-07-30T12:17:45.799Z,3.72
2022-07-30T12:20:31.884Z,3.38
2022-07-30T12:23:21.917Z,3.25
2022-07-30T12:26:09.040Z,3.20
2022-07-30T12:28:59.629Z,3.08
2022-07-30T12:31:46.249Z,3.28
2022-07-30T12:34:33.858Z,3.33
2022-07-30T12:37:20.354Z,3.25
2022-07-30T12:40:15.115Z,2.78
2022-07-30T12:43:01.349Z,3.15
2022-07-30T12:45:51.930Z,3.05
2022-07-30T12:48:58.235Z,3.08
2022-07-30T12:52:00.184Z,3.30
2022-07-30T12:54:57.322Z,3.00
2022-07-30T12:58:07.981Z,3.28
2022-07-30T13:00:55.697Z,3.38
2022-07-30T13:03:41.939Z,3.60
2022-07-30T13:06:27.762Z,2.90
2022-07-30T13:09:21.175Z,3.50
2022-07-30T13:12:07.220Z,3.80
2022-07-30T13:14:53.310Z,3.85
2022-07-30T13:17:39.217Z,3.67
2022-07-30T13:20:24.839Z,3.60
2022-07-30T13:23:11.267Z,3.53
2022-07-30T13:25:58.289Z,3.50
2022-07-30T13:28:46.533Z,3.28
2022-07-30T13:31:42.885Z,4.00
2022-07-30T13:34:29.697Z,5.93
2022-07-30T13:37:15.962Z,4.50
2022-07-30T13:40:02.044Z,3.22
2022-07-30T13:42:49.855Z,3.55
2022-07-30T13:45:36.524Z,3.35
2022-07-30T13:48:23.137Z,3.20
2022-07-30T13:51:08.908Z,3.88
2022-07-30T13:53:55.249Z,2.88
2022-07-30T13:56:41.947Z,3.15
2022-07-30T13:59:28.409Z,3.45
2022-07-30T14:02:15.047Z,3.60
2022-07-30T14:05:08.989Z,3.80
2022-07-30T14:07:55.625Z,3.83
2022-07-30T14:10:41.336Z,4.13
2022-07-30T14:13:27.222Z,4.40
2022-07-30T14:16:42.372Z,4.30
2022-07-30T14:19:23.833Z,3.85
2022-07-30T14:22:11.987Z,3.70
2022-07-30T14:24:57.924Z,3.50
2022-07-30T14:27:44.495Z,3.60
2022-07-30T14:30:33.905Z,4.30
2022-07-30T14:33:20.143Z,3.92
2022-07-30T14:36:06.979Z,3.90
2022-07-30T14:38:56.527Z,4.78
2022-07-30T14:41:43.721Z,3.97
2022-07-30T14:44:29.373Z,4.20
2022-07-30T14:47:15.444Z,3.42
2022-07-30T14:50:01.582Z,3.78
2022-07-30T14:52:49.566Z,3.33
2022-07-30T14:55:35.666Z,3.65
2022-07-30T14:58:21.628Z,3.50
2022-07-30T15:01:15.633Z,3.15
2022-07-30T15:04:02.267Z,3.28
2022-07-30T15:06:48.132Z,3.67
2022-07-30T15:09:34.361Z,3.20
2022-07-30T15:12:23.735Z,4.18
2022-07-30T15:15:12.778Z,4.50
2022-07-30T15:18:01.377Z,5.30
2022-07-30T15:20:47.457Z,3.63
2022-07-30T15:23:33.114Z,3.20
2022-07-30T15:26:19.079Z,3.15
2022-07-30T15:29:05.268Z,3.40
2022-07-30T15:31:52.250Z,3.28
2022-07-30T15:34:41.451Z,3.58
2022-07-30T15:37:27.411Z,3.75
2022-07-30T15:40:13.343Z,3.50
2022-07-30T15:42:59.317Z,3.33
2022-07-30T15:45:55.373Z,3.90
2022-07-30T15:48:42.394Z,4.13
2022-07-30T15:51:28.458Z,3.78
2022-07-30T15:54:15.691Z,3.63
2022-07-30T15:57:08.688Z,3.63
2022-07-30T15:59:54.482Z,3.70
2022-07-30T16:02:41.411Z,3.80
2022-07-30T16:05:27.645Z,3.78
2022-07-30T16:08:33.853Z,4.90
2022-07-30T16:11:20.378Z,6.07
2022-07-30T16:14:07.475Z,5.00
2022-07-30T16:16:53.264Z,5.50
2022-07-30T16:19:39.579Z,4.90
2022-07-30T16:22:25.735Z,5.35
2022-07-30T16:25:11.663Z,4.90
2022-07-30T16:27:58.248Z,4.75
2022-07-30T16:30:50.880Z,4.57
2022-07-30T16:33:38.130Z,4.68
2022-07-30T16:36:24.173Z,4.38
2022-07-30T16:39:13.048Z,4.65
2022-07-30T16:42:00.984Z,4.38
2022-07-30T16:44:48.132Z,5.35
2022-07-30T16:47:34.599Z,6.72
2022-07-30T16:50:21.946Z,5.07
2022-07-30T16:53:13.841Z,4.93
2022-07-30T16:56:00.315Z,4.20
2022-07-30T16:58:46.703Z,4.35
2022-07-30T17:01:33.373Z,4.32
2022-07-30T17:04:19.712Z,5.55
2022-07-30T17:07:06.238Z,5.32
2022-07-30T17:09:53.768Z,6.03
2022-07-30T17:12:40.137Z,6.20
2022-07-30T17:15:32.933Z,5.90
2022-07-30T17:18:20.193Z,6.20
2022-07-30T17:21:08.738Z,7.03
2022-07-30T17:23:55.200Z,6.53
2022-07-30T17:26:47.038Z,6.93
2022-07-30T17:29:33.845Z,7.20
2022-07-30T17:32:23.474Z,8.52
2022-07-30T17:35:13.745Z,8.68
2022-07-30T17:38:00.248Z,8.23
2022-07-30T17:40:47.597Z,9.30
2022-07-30T17:43:36.735Z,9.73
2022-07-30T17:46:23.555Z,9.63
2022-07-30T17:49:09.336Z,9.52
2022-07-30T17:52:00.739Z,10.20
2022-07-30T17:54:50.646Z,10.23
2022-07-30T17:57:39.378Z,10.10
2022-07-30T18:00:25.363Z,9.85
2022-07-30T18:03:12.132Z,9.25
2022-07-30T18:05:59.945Z,9.02
2022-07-30T18:08:45.721Z,8.77
2022-07-30T18:11:32.124Z,8.40
2022-07-30T18:14:24.046Z,8.23
2022-07-30T18:17:14.107Z,7.22
2022-07-30T18:20:00.735Z,7.20
2022-07-30T18:22:46.927Z,7.72
2022-07-30T18:25:51.514Z,8.67
2022-07-30T18:28:38.452Z,9.02
2022-07-30T18:31:24.029Z,8.80
2022-07-30T18:34:09.649Z,8.43
2022-07-30T18:36:55.723Z,7.93
2022-07-30T18:39:41.922Z,8.40
2022-07-30T18:42:28.325Z,8.70
2022-07-30T18:45:14.239Z,8.27
2022-07-30T18:48:00.857Z,8.30
2022-07-30T18:50:46.779Z,8.57
2022-07-30T18:53:34.172Z,9.13
2022-07-30T18:56:25.545Z,9.88
2022-07-30T18:59:11.667Z,8.98
2022-07-30T19:01:57.747Z,7.85
2022-07-30T19:04:43.921Z,8.05
2022-07-30T19:07:29.769Z,7.15
2022-07-30T19:10:34.599Z,7.03
2022-07-30T19:13:23.716Z,6.35
2022-07-30T19:16:10.630Z,6.32
2022-07-30T19:18:56.411Z,5.55
2022-07-30T19:21:43.658Z,5.90
2022-07-30T19:24:30.027Z,6.07
2022-07-30T19:27:15.581Z,5.95
2022-07-30T19:30:03.569Z,5.03
2022-07-30T19:32:49.632Z,5.82
2022-07-30T19:35:36.337Z,5.25
2022-07-30T19:38:24.472Z,6.10
2022-07-30T19:41:11.724Z,6.03
2022-07-30T19:44:00.564Z,5.88
2022-07-30T19:46:48.913Z,5.68
2022-07-30T19:49:41.238Z,6.17
2022-07-30T19:52:27.468Z,5.85
2022-07-30T19:55:30.615Z,6.10
2022-07-30T19:58:19.702Z,5.53
2022-07-30T20:01:08.879Z,5.35
2022-07-30T20:03:55.955Z,5.75
2022-07-30T20:06:49.138Z,5.55
2022-07-30T20:09:35.275Z,6.07
2022-07-30T20:12:21.053Z,6.22
2022-07-30T20:15:14.684Z,6.18
2022-07-30T20:18:00.994Z,5.87
2022-07-30T20:20:58.290Z,6.30
2022-07-30T20:23:46.483Z,5.55
2022-07-30T20:26:33.619Z,6.32
2022-07-30T20:29:20.619Z,6.50
2022-07-30T20:32:08.762Z,6.95
2022-07-30T20:34:55.618Z,5.97
2022-07-30T20:37:55.208Z,6.10
2022-07-30T20:40:42.877Z,6.88
2022-07-30T20:43:29.822Z,5.57
2022-07-30T20:46:16.779Z,3.95
2022-07-30T20:49:03.622Z,3.60
2022-07-30T20:51:51.855Z,4.20
2022-07-30T20:54:43.654Z,4.00
2022-07-30T20:57:55.954Z,4.63
2022-07-30T21:00:38.037Z,4.05
2022-07-30T21:03:24.166Z,4.25
2022-07-30T21:06:10.786Z,4.68
2022-07-30T21:08:57.577Z,4.80
2022-07-30T21:11:50.231Z,4.60
2022-07-30T21:14:36.621Z,4.32
2022-07-30T21:17:23.349Z,4.38
2022-07-30T21:20:10.575Z,4.30
2022-07-30T21:23:10.960Z,4.60
2022-07-30T21:29:03.066Z,4.38
2022-07-30T21:32:01.083Z,4.90
2022-07-30T21:34:49.042Z,6.10
2022-07-30T21:37:36.977Z,6.72
2022-07-30T21:40:24.815Z,5.82
2022-07-30T21:43:10.639Z,10.13
2022-07-30T21:45:58.418Z,7.80
2022-07-30T21:48:43.851Z,5.35
2022-07-30T21:51:29.273Z,4.90
2022-07-30T21:54:28.625Z,4.65
2022-07-30T21:57:23.309Z,4.20
2022-07-30T22:00:21.941Z,4.72
2022-07-30T22:03:15.978Z,4.15
2022-07-30T22:06:14.191Z,3.70
2022-07-30T22:08:59.853Z,4.45
2022-07-30T22:11:48.596Z,4.85
2022-07-30T22:14:34.211Z,4.97
2022-07-30T22:17:23.303Z,5.80
2022-07-30T22:23:08.749Z,5.25
2022-07-30T22:25:54.537Z,4.70
2022-07-30T22:28:46.703Z,4.53
2022-07-30T22:34:44.846Z,3.58
2022-07-30T22:37:34.101Z,4.50
2022-07-30T22:40:19.877Z,4.38
2022-07-30T22:43:12.891Z,5.05
2022-07-30T22:46:01.395Z,6.43
2022-07-30T22:48:46.945Z,4.53
2022-07-30T22:51:50.185Z,4.90
2022-07-30T22:54:39.635Z,4.60
2022-07-30T22:57:24.956Z,4.45
2022-07-30T23:00:14.369Z,4.65
2022-07-30T23:03:12.914Z,4.88
2022-07-30T23:06:02.118Z,4.50
2022-07-30T23:08:49.280Z,5.20
2022-07-30T23:12:27.229Z,4.72
2022-07-30T23:12:28.905Z,5.07
2022-07-30T23:12:34.139Z,6.70
2022-07-30T23:14:40.329Z,7.00
2022-07-30T23:17:25.835Z,7.13
2022-07-30T23:20:15.055Z,5.63
2022-07-30T23:23:01.588Z,5.50
2022-07-30T23:25:47.370Z,5.03
2022-07-30T23:28:33.084Z,4.82
2022-07-30T23:31:18.839Z,4.85
2022-07-30T23:34:06.354Z,5.13
2022-07-30T23:36:52.308Z,5.10
2022-07-30T23:39:38.339Z,4.85
2022-07-30T23:42:23.998Z,4.82
2022-07-30T23:45:09.593Z,4.55
2022-07-30T23:48:00.764Z,4.70
2022-07-30T23:50:49.108Z,5.15
2022-07-30T23:53:34.793Z,5.18
2022-07-30T23:56:20.208Z,4.70
2022-07-30T23:59:05.616Z,4.97
